sensor_id;sensor_type;location;lat;lon;timestamp;P1;durP1;ratioP1;P2;durP2;ratioP2
43118;SDS011;28729;49.838;8.650;2023-02-17T00:03:00;14.05;;;7.05;;
43118;SDS011;28729;49.838;8.650;2023-02-17T00:07:02;14.25;;;6.90;;
43118;SDS011;28729;49.838;8.650;2023-02-17T00:11:04;13.45;;;7.22;;
43118;SDS011;28729;49.838;8.650;2023-02-17T00:15:06;16.15;;;8.27;;
43118;SDS011;28729;49.838;8.650;2023-02-17T00:19:08;15.67;;;7.13;;
43118;SDS011;28729;49.838;8.650;2023-02-17T00:23:25;12.00;;;7.18;;
43118;SDS011;28729;49.838;8.650;2023-02-17T00:27:27;15.25;;;7.45;;
43118;SDS011;28729;49.838;8.650;2023-02-17T00:31:28;16.90;;;7.82;;
43118;SDS011;28729;49.838;8.650;2023-02-17T00:35:32;15.23;;;7.65;;
43118;SDS011;28729;49.838;8.650;2023-02-17T00:39:34;13.20;;;7.15;;
43118;SDS011;28729;49.838;8.650;2023-02-17T00:43:35;13.93;;;7.95;;
43118;SDS011;28729;49.838;8.650;2023-02-17T00:47:37;11.57;;;7.35;;
43118;SDS011;28729;49.838;8.650;2023-02-17T00:51:38;14.90;;;6.68;;
43118;SDS011;28729;49.838;8.650;2023-02-17T00:55:40;11.85;;;7.25;;
43118;SDS011;28729;49.838;8.650;2023-02-17T00:59:42;12.43;;;6.50;;
43118;SDS011;28729;49.838;8.650;2023-02-17T01:03:43;15.15;;;8.32;;
43118;SDS011;28729;49.838;8.650;2023-02-17T01:07:47;13.45;;;8.13;;
43118;SDS011;28729;49.838;8.650;2023-02-17T01:11:49;14.15;;;7.55;;
43118;SDS011;28729;49.838;8.650;2023-02-17T01:15:51;12.43;;;6.67;;
43118;SDS011;28729;49.838;8.650;2023-02-17T01:19:54;11.65;;;6.82;;
43118;SDS011;28729;49.838;8.650;2023-02-17T01:24:00;13.30;;;7.35;;
43118;SDS011;28729;49.838;8.650;2023-02-17T01:28:03;17.00;;;7.68;;
43118;SDS011;28729;49.838;8.650;2023-02-17T01:32:04;14.20;;;7.40;;
43118;SDS011;28729;49.838;8.650;2023-02-17T01:36:07;16.08;;;6.93;;
43118;SDS011;28729;49.838;8.650;2023-02-17T01:40:13;12.85;;;7.70;;
43118;SDS011;28729;49.838;8.650;2023-02-17T01:44:16;12.33;;;7.57;;
43118;SDS011;28729;49.838;8.650;2023-02-17T01:48:30;12.50;;;7.22;;
43118;SDS011;28729;49.838;8.650;2023-02-17T01:52:37;15.93;;;7.82;;
43118;SDS011;28729;49.838;8.650;2023-02-17T01:56:40;14.85;;;8.27;;
43118;SDS011;28729;49.838;8.650;2023-02-17T02:00:45;13.38;;;6.90;;
43118;SDS011;28729;49.838;8.650;2023-02-17T02:04:50;13.32;;;7.38;;
43118;SDS011;28729;49.838;8.650;2023-02-17T02:08:55;14.45;;;7.53;;
43118;SDS011;28729;49.838;8.650;2023-02-17T02:13:02;14.90;;;7.53;;
43118;SDS011;28729;49.838;8.650;2023-02-17T02:17:11;13.93;;;7.45;;
43118;SDS011;28729;49.838;8.650;2023-02-17T02:29:55;14.05;;;7.13;;
43118;SDS011;28729;49.838;8.650;2023-02-17T02:34:03;13.55;;;6.85;;
43118;SDS011;28729;49.838;8.650;2023-02-17T02:38:12;16.35;;;7.82;;
43118;SDS011;28729;49.838;8.650;2023-02-17T02:42:18;12.13;;;6.50;;
43118;SDS011;28729;49.838;8.650;2023-02-17T02:46:24;12.32;;;6.50;;
43118;SDS011;28729;49.838;8.650;2023-02-17T03:08:09;12.85;;;6.63;;
43118;SDS011;28729;49.838;8.650;2023-02-17T03:12:16;13.00;;;7.05;;
43118;SDS011;28729;49.838;8.650;2023-02-17T03:16:18;14.15;;;8.23;;
43118;SDS011;28729;49.838;8.650;2023-02-17T03:20:20;14.27;;;7.10;;
43118;SDS011;28729;49.838;8.650;2023-02-17T03:24:22;14.18;;;6.90;;
43118;SDS011;28729;49.838;8.650;2023-02-17T03:28:24;14.03;;;7.17;;
43118;SDS011;28729;49.838;8.650;2023-02-17T03:32:26;11.25;;;7.18;;
43118;SDS011;28729;49.838;8.650;2023-02-17T03:36:27;13.80;;;7.15;;
43118;SDS011;28729;49.838;8.650;2023-02-17T03:40:30;9.88;;;5.72;;
43118;SDS011;28729;49.838;8.650;2023-02-17T03:44:31;13.82;;;6.80;;
43118;SDS011;28729;49.838;8.650;2023-02-17T03:48:33;12.18;;;6.55;;
43118;SDS011;28729;49.838;8.650;2023-02-17T03:52:35;9.35;;;6.15;;
43118;SDS011;28729;49.838;8.650;2023-02-17T03:56:36;14.63;;;6.00;;
43118;SDS011;28729;49.838;8.650;2023-02-17T04:00:38;14.48;;;6.47;;
43118;SDS011;28729;49.838;8.650;2023-02-17T04:04:41;12.02;;;5.93;;
43118;SDS011;28729;49.838;8.650;2023-02-17T04:08:42;11.73;;;6.00;;
43118;SDS011;28729;49.838;8.650;2023-02-17T04:12:44;11.68;;;6.05;;
43118;SDS011;28729;49.838;8.650;2023-02-17T04:16:45;10.38;;;6.05;;
43118;SDS011;28729;49.838;8.650;2023-02-17T04:20:48;11.10;;;5.90;;
43118;SDS011;28729;49.838;8.650;2023-02-17T04:24:50;13.02;;;5.43;;
43118;SDS011;28729;49.838;8.650;2023-02-17T04:28:52;8.65;;;5.38;;
43118;SDS011;28729;49.838;8.650;2023-02-17T04:32:54;13.38;;;5.13;;
43118;SDS011;28729;49.838;8.650;2023-02-17T04:36:55;12.35;;;5.55;;
43118;SDS011;28729;49.838;8.650;2023-02-17T04:40:58;10.27;;;5.10;;
43118;SDS011;28729;49.838;8.650;2023-02-17T04:45:00;8.82;;;5.10;;
43118;SDS011;28729;49.838;8.650;2023-02-17T04:49:01;10.52;;;5.85;;
43118;SDS011;28729;49.838;8.650;2023-02-17T04:53:03;9.48;;;5.13;;
43118;SDS011;28729;49.838;8.650;2023-02-17T04:57:04;11.57;;;5.25;;
43118;SDS011;28729;49.838;8.650;2023-02-17T05:01:06;10.45;;;5.40;;
43118;SDS011;28729;49.838;8.650;2023-02-17T05:05:08;11.95;;;5.22;;
43118;SDS011;28729;49.838;8.650;2023-02-17T05:09:09;10.55;;;5.10;;
43118;SDS011;28729;49.838;8.650;2023-02-17T05:13:11;11.23;;;5.57;;
43118;SDS011;28729;49.838;8.650;2023-02-17T05:17:13;10.80;;;5.20;;
43118;SDS011;28729;49.838;8.650;2023-02-17T05:21:14;8.65;;;5.05;;
43118;SDS011;28729;49.838;8.650;2023-02-17T05:25:16;10.13;;;4.97;;
43118;SDS011;28729;49.838;8.650;2023-02-17T05:29:18;11.70;;;5.15;;
43118;SDS011;28729;49.838;8.650;2023-02-17T05:33:20;11.02;;;4.72;;
43118;SDS011;28729;49.838;8.650;2023-02-17T05:37:22;9.10;;;4.45;;
43118;SDS011;28729;49.838;8.650;2023-02-17T05:41:23;8.18;;;4.72;;
43118;SDS011;28729;49.838;8.650;2023-02-17T05:45:25;8.27;;;4.50;;
43118;SDS011;28729;49.838;8.650;2023-02-17T05:49:27;9.52;;;4.53;;
43118;SDS011;28729;49.838;8.650;2023-02-17T05:53:28;9.15;;;4.40;;
43118;SDS011;28729;49.838;8.650;2023-02-17T05:57:31;9.93;;;4.63;;
43118;SDS011;28729;49.838;8.650;2023-02-17T06:01:32;7.20;;;4.80;;
43118;SDS011;28729;49.838;8.650;2023-02-17T06:05:37;9.20;;;4.60;;
43118;SDS011;28729;49.838;8.650;2023-02-17T06:09:39;6.93;;;4.03;;
43118;SDS011;28729;49.838;8.650;2023-02-17T06:13:41;12.55;;;4.55;;
43118;SDS011;28729;49.838;8.650;2023-02-17T06:17:43;11.35;;;5.22;;
43118;SDS011;28729;49.838;8.650;2023-02-17T06:21:44;9.75;;;4.65;;
43118;SDS011;28729;49.838;8.650;2023-02-17T06:25:46;9.95;;;5.28;;
43118;SDS011;28729;49.838;8.650;2023-02-17T06:29:47;9.43;;;5.07;;
43118;SDS011;28729;49.838;8.650;2023-02-17T06:33:49;11.23;;;4.95;;
43118;SDS011;28729;49.838;8.650;2023-02-17T06:37:51;8.63;;;4.95;;
43118;SDS011;28729;49.838;8.650;2023-02-17T06:41:53;12.23;;;5.35;;
43118;SDS011;28729;49.838;8.650;2023-02-17T06:45:54;9.13;;;4.63;;
43118;SDS011;28729;49.838;8.650;2023-02-17T06:49:56;8.77;;;5.07;;
43118;SDS011;28729;49.838;8.650;2023-02-17T06:53:58;10.60;;;5.10;;
43118;SDS011;28729;49.838;8.650;2023-02-17T06:57:59;10.02;;;5.40;;
43118;SDS011;28729;49.838;8.650;2023-02-17T07:02:02;12.43;;;5.30;;
43118;SDS011;28729;49.838;8.650;2023-02-17T07:06:04;9.60;;;4.65;;
43118;SDS011;28729;49.838;8.650;2023-02-17T07:10:08;7.78;;;4.53;;
43118;SDS011;28729;49.838;8.650;2023-02-17T07:14:11;8.43;;;4.40;;
43118;SDS011;28729;49.838;8.650;2023-02-17T07:18:12;12.73;;;5.30;;
43118;SDS011;28729;49.838;8.650;2023-02-17T07:22:14;8.18;;;4.10;;
43118;SDS011;28729;49.838;8.650;2023-02-17T07:26:16;8.88;;;5.03;;
43118;SDS011;28729;49.838;8.650;2023-02-17T07:30:17;7.35;;;4.30;;
43118;SDS011;28729;49.838;8.650;2023-02-17T07:38:23;8.45;;;4.22;;
43118;SDS011;28729;49.838;8.650;2023-02-17T07:42:25;10.50;;;4.68;;
43118;SDS011;28729;49.838;8.650;2023-02-17T07:46:28;9.77;;;4.15;;
43118;SDS011;28729;49.838;8.650;2023-02-17T07:50:30;11.17;;;4.53;;
43118;SDS011;28729;49.838;8.650;2023-02-17T07:54:32;10.93;;;4.50;;
43118;SDS011;28729;49.838;8.650;2023-02-17T07:58:34;10.25;;;4.90;;
43118;SDS011;28729;49.838;8.650;2023-02-17T08:02:38;8.95;;;5.03;;
43118;SDS011;28729;49.838;8.650;2023-02-17T08:06:40;7.45;;;4.60;;
43118;SDS011;28729;49.838;8.650;2023-02-17T08:10:44;8.02;;;4.82;;
43118;SDS011;28729;49.838;8.650;2023-02-17T08:15:04;15.38;;;5.18;;
43118;SDS011;28729;49.838;8.650;2023-02-17T08:19:07;9.38;;;4.93;;
43118;SDS011;28729;49.838;8.650;2023-02-17T08:23:10;9.57;;;4.07;;
43118;SDS011;28729;49.838;8.650;2023-02-17T08:27:12;10.85;;;4.35;;
43118;SDS011;28729;49.838;8.650;2023-02-17T08:35:17;6.83;;;4.03;;
43118;SDS011;28729;49.838;8.650;2023-02-17T08:39:22;11.52;;;5.43;;
43118;SDS011;28729;49.838;8.650;2023-02-17T08:43:24;10.52;;;4.78;;
43118;SDS011;28729;49.838;8.650;2023-02-17T08:47:26;6.43;;;3.90;;
43118;SDS011;28729;49.838;8.650;2023-02-17T08:51:28;7.72;;;4.30;;
43118;SDS011;28729;49.838;8.650;2023-02-17T08:55:30;6.60;;;3.63;;
43118;SDS011;28729;49.838;8.650;2023-02-17T08:59:49;5.97;;;3.50;;
43118;SDS011;28729;49.838;8.650;2023-02-17T09:03:51;8.55;;;3.90;;
43118;SDS011;28729;49.838;8.650;2023-02-17T09:07:54;9.13;;;4.45;;
43118;SDS011;28729;49.838;8.650;2023-02-17T09:11:56;11.23;;;4.65;;
43118;SDS011;28729;49.838;8.650;2023-02-17T09:15:59;7.88;;;4.25;;
43118;SDS011;28729;49.838;8.650;2023-02-17T09:20:02;9.70;;;4.85;;
43118;SDS011;28729;49.838;8.650;2023-02-17T09:24:16;7.00;;;4.00;;
43118;SDS011;28729;49.838;8.650;2023-02-17T09:28:19;8.88;;;4.60;;
43118;SDS011;28729;49.838;8.650;2023-02-17T09:32:20;8.85;;;4.78;;
43118;SDS011;28729;49.838;8.650;2023-02-17T09:36:24;8.13;;;4.97;;
43118;SDS011;28729;49.838;8.650;2023-02-17T09:40:37;11.50;;;5.05;;
43118;SDS011;28729;49.838;8.650;2023-02-17T09:44:50;14.65;;;5.65;;
43118;SDS011;28729;49.838;8.650;2023-02-17T09:49:02;9.65;;;5.00;;
43118;SDS011;28729;49.838;8.650;2023-02-17T09:53:23;10.18;;;5.35;;
43118;SDS011;28729;49.838;8.650;2023-02-17T09:57:34;10.48;;;5.45;;
43118;SDS011;28729;49.838;8.650;2023-02-17T10:01:40;9.52;;;5.40;;
43118;SDS011;28729;49.838;8.650;2023-02-17T10:06:00;9.52;;;5.03;;
43118;SDS011;28729;49.838;8.650;2023-02-17T10:10:17;9.88;;;5.35;;
43118;SDS011;28729;49.838;8.650;2023-02-17T10:19:07;10.35;;;5.35;;
43118;SDS011;28729;49.838;8.650;2023-02-17T10:31:45;9.10;;;4.57;;
43118;SDS011;28729;49.838;8.650;2023-02-17T10:35:50;9.40;;;4.22;;
43118;SDS011;28729;49.838;8.650;2023-02-17T10:39:54;10.05;;;4.57;;
43118;SDS011;28729;49.838;8.650;2023-02-17T10:43:57;7.35;;;4.70;;
43118;SDS011;28729;49.838;8.650;2023-02-17T10:52:13;9.95;;;4.35;;
43118;SDS011;28729;49.838;8.650;2023-02-17T10:56:22;7.47;;;3.72;;
43118;SDS011;28729;49.838;8.650;2023-02-17T11:00:29;8.85;;;4.95;;
43118;SDS011;28729;49.838;8.650;2023-02-17T11:04:42;7.57;;;4.45;;
43118;SDS011;28729;49.838;8.650;2023-02-17T11:12:53;8.88;;;3.67;;
43118;SDS011;28729;49.838;8.650;2023-02-17T11:16:57;5.95;;;3.72;;
43118;SDS011;28729;49.838;8.650;2023-02-17T11:21:03;4.45;;;2.90;;
43118;SDS011;28729;49.838;8.650;2023-02-17T11:29:33;6.05;;;3.40;;
43118;SDS011;28729;49.838;8.650;2023-02-17T11:33:36;6.22;;;3.28;;
43118;SDS011;28729;49.838;8.650;2023-02-17T11:37:41;6.10;;;2.72;;
43118;SDS011;28729;49.838;8.650;2023-02-17T11:41:43;7.78;;;2.97;;
43118;SDS011;28729;49.838;8.650;2023-02-17T11:45:50;5.85;;;3.10;;
43118;SDS011;28729;49.838;8.650;2023-02-17T11:54:46;6.45;;;3.03;;
43118;SDS011;28729;49.838;8.650;2023-02-17T12:03:17;6.15;;;3.17;;
43118;SDS011;28729;49.838;8.650;2023-02-17T12:12:21;7.80;;;3.58;;
43118;SDS011;28729;49.838;8.650;2023-02-17T12:25:39;6.28;;;3.03;;
43118;SDS011;28729;49.838;8.650;2023-02-17T12:29:55;4.70;;;2.35;;
43118;SDS011;28729;49.838;8.650;2023-02-17T12:34:11;5.05;;;2.80;;
43118;SDS011;28729;49.838;8.650;2023-02-17T12:38:24;4.95;;;2.78;;
43118;SDS011;28729;49.838;8.650;2023-02-17T12:46:45;4.68;;;2.05;;
43118;SDS011;28729;49.838;8.650;2023-02-17T12:50:55;3.13;;;1.80;;
43118;SDS011;28729;49.838;8.650;2023-02-17T12:55:10;3.88;;;2.00;;
43118;SDS011;28729;49.838;8.650;2023-02-17T12:59:31;3.17;;;1.65;;
43118;SDS011;28729;49.838;8.650;2023-02-17T13:03:35;3.35;;;1.92;;
43118;SDS011;28729;49.838;8.650;2023-02-17T13:11:51;3.38;;;1.70;;
43118;SDS011;28729;49.838;8.650;2023-02-17T13:16:11;3.45;;;1.52;;
43118;SDS011;28729;49.838;8.650;2023-02-17T13:24:30;3.22;;;1.90;;
43118;SDS011;28729;49.838;8.650;2023-02-17T13:28:36;3.80;;;1.88;;
43118;SDS011;28729;49.838;8.650;2023-02-17T13:32:39;3.60;;;1.98;;
43118;SDS011;28729;49.838;8.650;2023-02-17T13:36:40;3.95;;;1.98;;
43118;SDS011;28729;49.838;8.650;2023-02-17T13:40:42;4.35;;;2.55;;
43118;SDS011;28729;49.838;8.650;2023-02-17T13:44:44;4.22;;;2.63;;
43118;SDS011;28729;49.838;8.650;2023-02-17T13:48:56;4.22;;;2.38;;
43118;SDS011;28729;49.838;8.650;2023-02-17T13:53:19;4.72;;;2.38;;
43118;SDS011;28729;49.838;8.650;2023-02-17T13:57:37;6.45;;;2.08;;
43118;SDS011;28729;49.838;8.650;2023-02-17T14:01:40;3.25;;;2.05;;
43118;SDS011;28729;49.838;8.650;2023-02-17T14:05:44;4.32;;;2.30;;
43118;SDS011;28729;49.838;8.650;2023-02-17T14:09:51;3.53;;;2.15;;
43118;SDS011;28729;49.838;8.650;2023-02-17T14:13:55;4.55;;;2.40;;
43118;SDS011;28729;49.838;8.650;2023-02-17T14:17:58;4.10;;;2.60;;
43118;SDS011;28729;49.838;8.650;2023-02-17T14:22:00;5.05;;;2.05;;
43118;SDS011;28729;49.838;8.650;2023-02-17T14:26:08;4.57;;;2.58;;
43118;SDS011;28729;49.838;8.650;2023-02-17T14:30:15;5.20;;;2.33;;
43118;SDS011;28729;49.838;8.650;2023-02-17T14:34:33;4.57;;;2.42;;
43118;SDS011;28729;49.838;8.650;2023-02-17T14:38:40;5.72;;;3.33;;
43118;SDS011;28729;49.838;8.650;2023-02-17T14:42:42;4.63;;;2.70;;
43118;SDS011;28729;49.838;8.650;2023-02-17T14:46:44;5.65;;;3.03;;
43118;SDS011;28729;49.838;8.650;2023-02-17T14:50:46;6.72;;;2.88;;
43118;SDS011;28729;49.838;8.650;2023-02-17T14:54:48;8.85;;;3.58;;
43118;SDS011;28729;49.838;8.650;2023-02-17T15:02:53;6.78;;;3.25;;
43118;SDS011;28729;49.838;8.650;2023-02-17T15:06:55;7.07;;;3.55;;
43118;SDS011;28729;49.838;8.650;2023-02-17T15:10:56;7.05;;;3.28;;
43118;SDS011;28729;49.838;8.650;2023-02-17T15:14:58;5.88;;;3.67;;
43118;SDS011;28729;49.838;8.650;2023-02-17T15:19:00;5.57;;;3.17;;
43118;SDS011;28729;49.838;8.650;2023-02-17T15:23:01;7.72;;;3.55;;
43118;SDS011;28729;49.838;8.650;2023-02-17T15:27:03;6.55;;;3.15;;
43118;SDS011;28729;49.838;8.650;2023-02-17T15:31:08;7.13;;;3.58;;
43118;SDS011;28729;49.838;8.650;2023-02-17T15:35:19;6.20;;;3.13;;
43118;SDS011;28729;49.838;8.650;2023-02-17T15:39:23;6.25;;;3.42;;
43118;SDS011;28729;49.838;8.650;2023-02-17T15:43:27;5.70;;;3.53;;
43118;SDS011;28729;49.838;8.650;2023-02-17T15:48:19;7.38;;;3.25;;
43118;SDS011;28729;49.838;8.650;2023-02-17T15:52:20;6.07;;;3.15;;
43118;SDS011;28729;49.838;8.650;2023-02-17T15:56:25;7.50;;;3.65;;
43118;SDS011;28729;49.838;8.650;2023-02-17T16:00:32;6.22;;;3.55;;
43118;SDS011;28729;49.838;8.650;2023-02-17T16:04:35;6.18;;;3.55;;
43118;SDS011;28729;49.838;8.650;2023-02-17T16:08:37;8.43;;;3.83;;
43118;SDS011;28729;49.838;8.650;2023-02-17T16:12:40;6.70;;;3.92;;
43118;SDS011;28729;49.838;8.650;2023-02-17T16:16:42;6.90;;;4.03;;
43118;SDS011;28729;49.838;8.650;2023-02-17T16:20:44;5.97;;;3.53;;
43118;SDS011;28729;49.838;8.650;2023-02-17T16:24:46;5.38;;;3.35;;
43118;SDS011;28729;49.838;8.650;2023-02-17T16:28:47;5.88;;;3.40;;
43118;SDS011;28729;49.838;8.650;2023-02-17T16:32:49;5.93;;;3.47;;
43118;SDS011;28729;49.838;8.650;2023-02-17T16:36:54;4.13;;;2.50;;
43118;SDS011;28729;49.838;8.650;2023-02-17T16:40:57;5.68;;;3.22;;
43118;SDS011;28729;49.838;8.650;2023-02-17T16:44:59;5.55;;;2.75;;
43118;SDS011;28729;49.838;8.650;2023-02-17T16:49:02;7.10;;;3.37;;
43118;SDS011;28729;49.838;8.650;2023-02-17T16:53:15;5.00;;;3.08;;
43118;SDS011;28729;49.838;8.650;2023-02-17T16:57:18;5.95;;;3.15;;
43118;SDS011;28729;49.838;8.650;2023-02-17T17:01:21;4.93;;;3.03;;
43118;SDS011;28729;49.838;8.650;2023-02-17T17:05:25;4.72;;;3.17;;
43118;SDS011;28729;49.838;8.650;2023-02-17T17:09:28;5.88;;;3.30;;
43118;SDS011;28729;49.838;8.650;2023-02-17T17:13:31;4.88;;;2.78;;
43118;SDS011;28729;49.838;8.650;2023-02-17T17:17:35;4.85;;;2.63;;
43118;SDS011;28729;49.838;8.650;2023-02-17T17:21:40;4.22;;;2.78;;
43118;SDS011;28729;49.838;8.650;2023-02-17T17:25:42;5.20;;;2.50;;
43118;SDS011;28729;49.838;8.650;2023-02-17T17:29:48;5.88;;;3.40;;
43118;SDS011;28729;49.838;8.650;2023-02-17T17:33:50;6.75;;;3.47;;
43118;SDS011;28729;49.838;8.650;2023-02-17T17:37:52;5.45;;;2.78;;
43118;SDS011;28729;49.838;8.650;2023-02-17T17:41:54;5.75;;;3.03;;
43118;SDS011;28729;49.838;8.650;2023-02-17T17:45:57;5.70;;;3.60;;
43118;SDS011;28729;49.838;8.650;2023-02-17T17:49:59;6.47;;;4.03;;
43118;SDS011;28729;49.838;8.650;2023-02-17T17:54:01;5.97;;;3.58;;
43118;SDS011;28729;49.838;8.650;2023-02-17T17:58:03;6.90;;;3.88;;
43118;SDS011;28729;49.838;8.650;2023-02-17T18:02:05;5.50;;;3.47;;
43118;SDS011;28729;49.838;8.650;2023-02-17T18:06:12;8.70;;;3.35;;
43118;SDS011;28729;49.838;8.650;2023-02-17T18:10:18;6.63;;;3.33;;
43118;SDS011;28729;49.838;8.650;2023-02-17T18:14:20;4.33;;;2.60;;
43118;SDS011;28729;49.838;8.650;2023-02-17T18:18:23;4.63;;;2.80;;
43118;SDS011;28729;49.838;8.650;2023-02-17T18:22:25;5.38;;;3.28;;
43118;SDS011;28729;49.838;8.650;2023-02-17T18:26:27;5.23;;;3.00;;
43118;SDS011;28729;49.838;8.650;2023-02-17T18:30:29;4.80;;;3.10;;
43118;SDS011;28729;49.838;8.650;2023-02-17T18:34:31;4.45;;;2.83;;
43118;SDS011;28729;49.838;8.650;2023-02-17T18:38:33;6.88;;;3.45;;
43118;SDS011;28729;49.838;8.650;2023-02-17T18:42:35;6.15;;;3.47;;
43118;SDS011;28729;49.838;8.650;2023-02-17T18:46:37;5.20;;;2.75;;
43118;SDS011;28729;49.838;8.650;2023-02-17T18:50:41;4.88;;;2.67;;
43118;SDS011;28729;49.838;8.650;2023-02-17T18:54:43;5.70;;;3.30;;
43118;SDS011;28729;49.838;8.650;2023-02-17T18:58:46;4.70;;;2.90;;
43118;SDS011;28729;49.838;8.650;2023-02-17T19:02:49;4.32;;;2.92;;
43118;SDS011;28729;49.838;8.650;2023-02-17T19:10:54;5.88;;;3.13;;
43118;SDS011;28729;49.838;8.650;2023-02-17T19:14:55;5.03;;;3.13;;
43118;SDS011;28729;49.838;8.650;2023-02-17T19:18:57;5.45;;;3.13;;
43118;SDS011;28729;49.838;8.650;2023-02-17T19:22:59;5.55;;;3.15;;
43118;SDS011;28729;49.838;8.650;2023-02-17T19:27:04;4.90;;;2.88;;
43118;SDS011;28729;49.838;8.650;2023-02-17T19:31:16;5.55;;;3.38;;
43118;SDS011;28729;49.838;8.650;2023-02-17T19:35:19;5.43;;;3.20;;
43118;SDS011;28729;49.838;8.650;2023-02-17T19:39:21;5.72;;;3.45;;
43118;SDS011;28729;49.838;8.650;2023-02-17T19:43:22;5.32;;;3.20;;
43118;SDS011;28729;49.838;8.650;2023-02-17T19:47:24;6.00;;;3.80;;
43118;SDS011;28729;49.838;8.650;2023-02-17T19:51:26;5.63;;;3.53;;
43118;SDS011;28729;49.838;8.650;2023-02-17T19:55:27;5.72;;;3.70;;
43118;SDS011;28729;49.838;8.650;2023-02-17T19:59:32;4.88;;;3.15;;
43118;SDS011;28729;49.838;8.650;2023-02-17T20:03:34;5.63;;;3.30;;
43118;SDS011;28729;49.838;8.650;2023-02-17T20:07:36;5.60;;;3.13;;
43118;SDS011;28729;49.838;8.650;2023-02-17T20:11:37;5.70;;;3.80;;
43118;SDS011;28729;49.838;8.650;2023-02-17T20:15:39;6.28;;;3.38;;
43118;SDS011;28729;49.838;8.650;2023-02-17T20:19:41;5.35;;;3.63;;
43118;SDS011;28729;49.838;8.650;2023-02-17T20:23:42;6.38;;;3.83;;
43118;SDS011;28729;49.838;8.650;2023-02-17T20:27:44;6.73;;;4.03;;
43118;SDS011;28729;49.838;8.650;2023-02-17T20:31:46;6.15;;;3.92;;
43118;SDS011;28729;49.838;8.650;2023-02-17T20:35:48;5.60;;;3.60;;
43118;SDS011;28729;49.838;8.650;2023-02-17T20:39:49;6.63;;;4.03;;
43118;SDS011;28729;49.838;8.650;2023-02-17T20:43:51;6.80;;;4.30;;
43118;SDS011;28729;49.838;8.650;2023-02-17T20:47:53;6.85;;;4.05;;
43118;SDS011;28729;49.838;8.650;2023-02-17T20:51:55;6.80;;;3.70;;
43118;SDS011;28729;49.838;8.650;2023-02-17T20:55:56;7.03;;;3.97;;
43118;SDS011;28729;49.838;8.650;2023-02-17T20:59:58;8.63;;;4.75;;
43118;SDS011;28729;49.838;8.650;2023-02-17T21:04:00;7.43;;;4.32;;
43118;SDS011;28729;49.838;8.650;2023-02-17T21:08:02;6.88;;;4.32;;
43118;SDS011;28729;49.838;8.650;2023-02-17T21:12:05;7.05;;;4.35;;
43118;SDS011;28729;49.838;8.650;2023-02-17T21:16:09;7.25;;;4.57;;
43118;SDS011;28729;49.838;8.650;2023-02-17T21:20:17;8.18;;;5.00;;
43118;SDS011;28729;49.838;8.650;2023-02-17T21:24:20;9.25;;;5.22;;
43118;SDS011;28729;49.838;8.650;2023-02-17T21:28:22;6.67;;;4.17;;
43118;SDS011;28729;49.838;8.650;2023-02-17T21:32:24;7.43;;;4.50;;
43118;SDS011;28729;49.838;8.650;2023-02-17T21:36:26;10.30;;;5.22;;
43118;SDS011;28729;49.838;8.650;2023-02-17T21:40:29;9.00;;;5.22;;
43118;SDS011;28729;49.838;8.650;2023-02-17T21:44:31;8.43;;;5.03;;
43118;SDS011;28729;49.838;8.650;2023-02-17T21:48:51;9.52;;;4.97;;
43118;SDS011;28729;49.838;8.650;2023-02-17T21:52:53;7.43;;;4.88;;
43118;SDS011;28729;49.838;8.650;2023-02-17T21:56:55;8.20;;;4.95;;
43118;SDS011;28729;49.838;8.650;2023-02-17T22:00:57;7.50;;;4.75;;
43118;SDS011;28729;49.838;8.650;2023-02-17T22:04:59;7.40;;;4.40;;
43118;SDS011;28729;49.838;8.650;2023-02-17T22:09:00;7.78;;;4.90;;
43118;SDS011;28729;49.838;8.650;2023-02-17T22:13:03;9.77;;;5.15;;
43118;SDS011;28729;49.838;8.650;2023-02-17T22:21:09;7.30;;;4.33;;
43118;SDS011;28729;49.838;8.650;2023-02-17T22:25:12;6.38;;;4.43;;
43118;SDS011;28729;49.838;8.650;2023-02-17T22:29:14;7.50;;;5.00;;
43118;SDS011;28729;49.838;8.650;2023-02-17T22:33:15;7.28;;;4.97;;
43118;SDS011;28729;49.838;8.650;2023-02-17T22:37:17;7.50;;;5.00;;
43118;SDS011;28729;49.838;8.650;2023-02-17T22:41:21;7.70;;;4.30;;
43118;SDS011;28729;49.838;8.650;2023-02-17T22:45:24;7.32;;;4.38;;
43118;SDS011;28729;49.838;8.650;2023-02-17T22:49:25;5.80;;;4.03;;
43118;SDS011;28729;49.838;8.650;2023-02-17T22:53:28;7.47;;;4.35;;
43118;SDS011;28729;49.838;8.650;2023-02-17T22:57:29;8.77;;;5.07;;
43118;SDS011;28729;49.838;8.650;2023-02-17T23:01:33;6.35;;;4.55;;
43118;SDS011;28729;49.838;8.650;2023-02-17T23:05:36;7.00;;;4.18;;
43118;SDS011;28729;49.838;8.650;2023-02-17T23:09:37;8.18;;;4.38;;
43118;SDS011;28729;49.838;8.650;2023-02-17T23:13:39;8.20;;;4.32;;
43118;SDS011;28729;49.838;8.650;2023-02-17T23:17:41;6.85;;;4.57;;
43118;SDS011;28729;49.838;8.650;2023-02-17T23:22:00;8.15;;;4.90;;
43118;SDS011;28729;49.838;8.650;2023-02-17T23:26:04;8.38;;;4.75;;
43118;SDS011;28729;49.838;8.650;2023-02-17T23:30:07;7.20;;;4.60;;
43118;SDS011;28729;49.838;8.650;2023-02-17T23:34:12;7.20;;;4.55;;
43118;SDS011;28729;49.838;8.650;2023-02-17T23:38:16;7.88;;;4.97;;
43118;SDS011;28729;49.838;8.650;2023-02-17T23:42:18;6.22;;;4.15;;
43118;SDS011;28729;49.838;8.650;2023-02-17T23:46:20;7.55;;;4.63;;
43118;SDS011;28729;49.838;8.650;2023-02-17T23:50:21;7.60;;;5.13;;
43118;SDS011;28729;49.838;8.650;2023-02-17T23:54:24;8.13;;;4.28;;
43118;SDS011;28729;49.838;8.650;2023-02-17T23:58:25;8.57;;;5.22;;
